Celandine — ONDN — position and weather

sailwx.info

Track history (hours):
 
Tides and Currents Weather Stations Pressure Air Temp Water Temp Dewpoint Dewpoint Depression Visibility Wind Speed Wind Dir Waves Ship Positions

Celandine

Last reported at 2015-Aug-30 19:33 UTC. Time now 2015-Aug-30 20:02 UTC.
Position N 51°35' E 001°55'.

Length 162 m; draft 5.7 m.

Type: Ship (hazmat cat A). MMSI: 205476000.

Date/timePositionNaut miles runAvg speedWind from/ knotsBaromVisibWave heightAir tempDewpointWater temp
2015-Aug-30 19:33N 51°35' E 001°55'1414.5
2015-Aug-30 18:33N 51°29' E 001°34'1616.3
2015-Aug-30 17:33N 51°29' E 001°07'1716.9
2015-Aug-30 16:33N 51°30' E 000°40'1313.1
2015-Aug-30 15:34N 51°27' E 000°20'3 3.0
2015-Aug-30 14:34N 51°28' E 000°15'0 0.0
2015-Aug-30 13:34N 51°28' E 000°15'0 0.0
2015-Aug-30 12:34N 51°28' E 000°15'0 0.0
2015-Aug-30 11:34N 51°28' E 000°15'0 0.0
2015-Aug-30 10:34N 51°28' E 000°15'0 0.0
2015-Aug-30 09:34N 51°28' E 000°15'0 0.0
2015-Aug-30 08:34N 51°28' E 000°15'1 0.9
2015-Aug-30 07:34N 51°28' E 000°16'8 7.9
2015-Aug-30 06:34N 51°30' E 000°28'1414.3
2015-Aug-30 05:33N 51°29' E 000°51'1413.8
2015-Aug-30 04:34N 51°29' E 001°14'1212.2
2015-Aug-30 03:33N 51°30' E 001°33'1211.5
2015-Aug-30 02:33N 51°35' E 001°50'1312.9
2015-Aug-30 01:33N 51°41' E 002°08'1514.6
2015-Aug-30 00:33N 51°35' E 002°30'1414.1
2015-Aug-29 23:34N 51°30' E 002°51'1514.7
2015-Aug-29 22:33N 51°22' E 003°11'2 1.9
2015-Aug-29 21:33N 51°21' E 003°13'0 0.0
2015-Aug-29 20:33N 51°21' E 003°13'0 0.0
2015-Aug-29 19:30N 51°21' E 003°13'0 0.0
2015-Aug-29 18:24N 51°21' E 003°13'0 0.0
2015-Aug-29 17:30N 51°21' E 003°13'0 0.0
2015-Aug-29 16:33N 51°21' E 003°13'0 0.0
2015-Aug-29 15:34N 51°21' E 003°13'1110.7
2015-Aug-29 14:33N 51°22' E 002°56'1717.1
2015-Aug-29 13:33N 51°22' E 002°29'1616.0
2015-Aug-29 12:34N 51°23' E 002°03'1514.8
2015-Aug-29 11:33N 51°29' E 001°42'1515.2
2015-Aug-29 10:34N 51°29' E 001°17'1414.1
2015-Aug-29 09:34N 51°29' E 000°55'1414.0
2015-Aug-29 08:34N 51°30' E 000°32'9 8.6
2015-Aug-29 07:34N 51°28' E 000°19'3 2.5
2015-Aug-29 06:34N 51°28' E 000°15'0 0.0
2015-Aug-29 05:34N 51°28' E 000°15'0 0.0
2015-Aug-29 04:34N 51°28' E 000°15'0 0.0
2015-Aug-29 03:34N 51°28' E 000°15'0 0.0
2015-Aug-29 02:34N 51°28' E 000°15'0 0.0
2015-Aug-29 01:34N 51°28' E 000°15'0 0.0
2015-Aug-29 00:34N 51°28' E 000°15'0 0.0
2015-Aug-28 23:34N 51°28' E 000°15'0 0.0
2015-Aug-28 22:34N 51°28' E 000°15'0 0.0
2015-Aug-28 21:34N 51°28' E 000°15'0 0.0
2015-Aug-28 20:34N 51°28' E 000°15'0 0.0
2015-Aug-28 19:34N 51°28' E 000°15'0 0.0
2015-Aug-28 18:34N 51°28' E 000°15'0 0.0
2015-Aug-28 17:34N 51°28' E 000°15'1 0.9
2015-Aug-28 16:34N 51°28' E 000°16'0 0.0
2015-Aug-28 15:34N 51°28' E 000°16'0 0.0
2015-Aug-28 14:34N 51°28' E 000°16'0 0.0
2015-Aug-28 13:34N 51°28' E 000°16'0 0.0
2015-Aug-28 12:34N 51°28' E 000°16'0 0.0
2015-Aug-28 11:34N 51°28' E 000°16'0 0.0
2015-Aug-28 10:34N 51°28' E 000°16'0 0.0
2015-Aug-28 09:34N 51°28' E 000°16'0 0.0
2015-Aug-28 08:34N 51°28' E 000°16'0 0.0
2015-Aug-28 07:34N 51°28' E 000°16'0 0.0
2015-Aug-28 06:34N 51°28' E 000°16'0 0.0
2015-Aug-28 05:34N 51°28' E 000°16'0 0.0
2015-Aug-28 04:34N 51°28' E 000°16'0 0.0
2015-Aug-28 03:34N 51°28' E 000°16'0 0.0
2015-Aug-28 02:34N 51°28' E 000°16'0 0.0
2015-Aug-28 01:34N 51°28' E 000°16'0 0.0
2015-Aug-28 00:34N 51°28' E 000°16'0 0.0
2015-Aug-27 23:34N 51°28' E 000°16'0 0.0
2015-Aug-27 22:34N 51°28' E 000°16'0 0.0
2015-Aug-27 21:34N 51°28' E 000°16'0 0.0
2015-Aug-27 20:34N 51°28' E 000°16'0 0.0
2015-Aug-27 19:34N 51°28' E 000°16'0 0.0
2015-Aug-27 18:34N 51°28' E 000°16'0 0.0
2015-Aug-27 17:34N 51°28' E 000°16'0 0.0
2015-Aug-27 16:34N 51°28' E 000°16'0 0.0
2015-Aug-27 15:34N 51°28' E 000°16'0 0.0
2015-Aug-27 14:34N 51°28' E 000°16'0 0.0
2015-Aug-27 13:34N 51°28' E 000°16'1 1.4
2015-Aug-27 12:34N 51°28' E 000°18'8 7.8
2015-Aug-27 11:33N 51°30' E 000°30'1413.6
2015-Aug-27 10:34N 51°29' E 000°52'1515.1
2015-Aug-27 09:34N 51°29' E 001°16'1515.0
2015-Aug-27 08:34N 51°32' E 001°40'1414.0
2015-Aug-27 07:33N 51°38' E 002°01'2114.9
2015-Aug-27 06:09N 51°34' E 002°34'915.5
2015-Aug-27 05:33N 51°32' E 002°48'1616.1
2015-Aug-27 04:34N 51°23' E 003°10'3 3.0
2015-Aug-27 03:33N 51°21' E 003°13'0 0.0
2015-Aug-27 02:23N 51°21' E 003°13'0 0.0
2015-Aug-27 01:32N 51°21' E 003°13'0 0.0
2015-Aug-27 00:32N 51°21' E 003°13'0 0.0
2015-Aug-26 22:26N 51°21' E 003°13'0 0.0
2015-Aug-26 21:20N 51°21' E 003°13'0 0.0
2015-Aug-26 20:32N 51°21' E 003°13'0 0.0
2015-Aug-26 19:32N 51°21' E 003°13'9 9.3
2015-Aug-26 18:33N 51°23' E 002°59'1515.4
2015-Aug-26 17:33N 51°22' E 002°35'1515.1
2015-Aug-26 16:33N 51°19' E 002°11'1515.3
2015-Aug-26 15:33N 51°28' E 001°51'1615.9
2015-Aug-26 14:34N 51°29' E 001°26'1615.6
2015-Aug-26 13:33N 51°29' E 001°01'1717.4
2015-Aug-26 12:34N 51°30' E 000°33'1110.6
2015-Aug-26 11:34N 51°27' E 000°16'1 1.1
2015-Aug-26 10:34N 51°28' E 000°15'0 0.0
2015-Aug-26 09:33N 51°28' E 000°15'0 0.0
2015-Aug-26 08:33N 51°28' E 000°15'0 0.0
2015-Aug-26 07:33N 51°28' E 000°15'0 0.0
2015-Aug-26 06:33N 51°28' E 000°15'0 0.0
2015-Aug-26 05:33N 51°28' E 000°15'2 2.3
2015-Aug-26 04:33N 51°28' E 000°19'10 9.7
2015-Aug-26 03:33N 51°30' E 000°34'1514.8
2015-Aug-26 02:33N 51°29' E 000°58'1413.9
2015-Aug-26 01:33N 51°29' E 001°20'1514.8
2015-Aug-26 00:33N 51°31' E 001°44'1514.5
2015-Aug-25 23:33N 51°36' E 002°06'1413.8
2015-Aug-25 22:33N 51°35' E 002°28'1413.6
2015-Aug-25 21:32N 51°31' E 002°49'1514.8
2015-Aug-25 20:32N 51°23' E 003°10'3 3.2
2015-Aug-25 19:31N 51°21' E 003°13'0 0.0
2015-Aug-25 18:31N 51°21' E 003°13'0 0.0
2015-Aug-25 17:31N 51°21' E 003°13'0 0.0
2015-Aug-25 16:31N 51°21' E 003°13'0 0.0
2015-Aug-25 15:28N 51°21' E 003°13'0 0.0
2015-Aug-25 14:31N 51°21' E 003°13'0 0.0
2015-Aug-25 13:33N 51°21' E 003°13'1110.9
2015-Aug-25 12:34N 51°26' E 002°58'1615.4
2015-Aug-25 11:33N 51°35' E 002°37'1615.9
2015-Aug-25 10:33N 51°40' E 002°13'1716.8
2015-Aug-25 09:34N 51°33' E 001°49'1717.0
2015-Aug-25 08:33N 51°29' E 001°22'1616.1
2015-Aug-25 07:34N 51°29' E 000°57'1615.5
2015-Aug-25 06:34N 51°30' E 000°32'9 8.7
2015-Aug-25 05:34N 51°28' E 000°18'2 2.1
2015-Aug-25 04:34N 51°28' E 000°15'0 0.0
2015-Aug-25 03:34N 51°28' E 000°15'0 0.0
2015-Aug-25 02:34N 51°28' E 000°15'0 0.0
2015-Aug-25 01:34N 51°28' E 000°15'0 0.0
2015-Aug-25 00:34N 51°28' E 000°15'0 0.0
2015-Aug-24 23:34N 51°28' E 000°15'3 2.8
2015-Aug-24 22:33N 51°28' E 000°19'8 8.1
2015-Aug-24 21:33N 51°30' E 000°32'1413.6
2015-Aug-24 20:33N 51°29' E 000°54'1313.5
2015-Aug-24 19:34N 51°29' E 001°15'1515.1
2015-Aug-24 18:33N 51°31' E 001°39'1615.8
2015-Aug-24 17:34N 51°37' E 002°03'2015.9
2015-Aug-24 16:19N 51°35' E 002°35'1215.4
2015-Aug-24 15:33N 51°29' E 002°52'1515.3
2015-Aug-24 14:34N 51°21' E 003°12'1 0.8
2015-Aug-24 13:32N 51°21' E 003°13'0 0.0
2015-Aug-24 12:32N 51°21' E 003°13'0 0.0
2015-Aug-24 11:29N 51°21' E 003°13'0 0.0
2015-Aug-24 10:29N 51°21' E 003°13'0 0.0
2015-Aug-24 09:32N 51°21' E 003°13'0 0.0
2015-Aug-24 08:26N 51°21' E 003°13'0 0.0
2015-Aug-24 07:29N 51°21' E 003°13'0 0.0
2015-Aug-24 06:32N 51°21' E 003°13'0 0.0
2015-Aug-24 05:32N 51°21' E 003°13'0 0.0
2015-Aug-24 04:29N 51°21' E 003°13'0 0.0
2015-Aug-24 03:32N 51°21' E 003°13'0 0.0
2015-Aug-24 02:29N 51°21' E 003°13'0 0.0
2015-Aug-24 01:32N 51°21' E 003°13'0 0.0
2015-Aug-24 00:32N 51°21' E 003°13'0 0.0
2015-Aug-23 23:32N 51°21' E 003°13'0 0.0
2015-Aug-23 22:32N 51°21' E 003°13'0 0.0
2015-Aug-23 21:32N 51°21' E 003°13'0 0.0
2015-Aug-23 20:32N 51°21' E 003°13'0 0.0
2015-Aug-23 19:29N 51°21' E 003°13'0 0.0
2015-Aug-23 18:32N 51°21' E 003°13'0 0.0
2015-Aug-23 17:32N 51°21' E 003°13'0 0.0
2015-Aug-23 16:29N 51°21' E 003°13'0 0.0
2015-Aug-23 15:32N 51°21' E 003°13'0 0.0
2015-Aug-23 14:29N 51°21' E 003°13'0 0.0
2015-Aug-23 13:32N 51°21' E 003°13'0 0.0
2015-Aug-23 12:29N 51°21' E 003°13'0 0.0
2015-Aug-23 11:29N 51°21' E 003°13'0 0.0
2015-Aug-23 10:32N 51°21' E 003°13'0 0.0
2015-Aug-23 09:29N 51°21' E 003°13'0 0.0
2015-Aug-23 08:29N 51°21' E 003°13'0 0.0
2015-Aug-23 07:32N 51°21' E 003°13'0 0.0
2015-Aug-23 06:32N 51°21' E 003°13'0 0.0
2015-Aug-23 05:32N 51°21' E 003°13'0 0.0
2015-Aug-23 04:29N 51°21' E 003°13'0 0.0
2015-Aug-23 03:32N 51°21' E 003°13'0 0.0
2015-Aug-23 02:32N 51°21' E 003°13'0 0.0
2015-Aug-23 01:32N 51°21' E 003°13'0 0.0
2015-Aug-23 00:32N 51°21' E 003°13'0 0.0
2015-Aug-22 23:29N 51°21' E 003°13'0 0.0
2015-Aug-22 22:32N 51°21' E 003°13'0 0.0
2015-Aug-22 21:32N 51°21' E 003°13'0 0.0
2015-Aug-22 20:32N 51°21' E 003°13'0 0.0
2015-Aug-22 19:32N 51°21' E 003°13'0 0.0
2015-Aug-22 18:32N 51°21' E 003°13'0 0.0
2015-Aug-22 17:32N 51°21' E 003°13'0 0.0
2015-Aug-22 16:32N 51°21' E 003°13'0 0.0
2015-Aug-22 15:32N 51°21' E 003°13'0 0.0
2015-Aug-22 14:32N 51°21' E 003°13'0 0.0
2015-Aug-22 13:32N 51°21' E 003°13'0 0.0
2015-Aug-22 12:32N 51°21' E 003°13'0 0.0
2015-Aug-22 11:32N 51°21' E 003°13'0 0.0
2015-Aug-22 10:32N 51°21' E 003°13'0 0.0
2015-Aug-22 09:32N 51°21' E 003°13'0 0.0
2015-Aug-22 08:20N 51°21' E 003°13'0 0.0
2015-Aug-22 07:32N 51°21' E 003°13'0 0.0
2015-Aug-22 06:32N 51°21' E 003°13'0 0.0
2015-Aug-22 05:32N 51°21' E 003°13'0 0.0
2015-Aug-22 04:32N 51°21' E 003°13'0 0.0
2015-Aug-22 03:32N 51°21' E 003°13'0 0.0
2015-Aug-22 02:32N 51°21' E 003°13'0 0.0
2015-Aug-22 01:32N 51°21' E 003°13'0 0.0
2015-Aug-22 00:32N 51°21' E 003°13'0 0.0
2015-Aug-21 23:32N 51°21' E 003°13'0 0.0
2015-Aug-21 22:29N 51°21' E 003°13'0 0.0
2015-Aug-21 21:32N 51°21' E 003°13'0 0.4
2015-Aug-21 20:33N 51°20' E 003°12'0 0.0
2015-Aug-21 19:33N 51°20' E 003°12'0 0.0
2015-Aug-21 18:33N 51°20' E 003°12'0 0.0
2015-Aug-21 17:19N 51°20' E 003°12'0 0.0
2015-Aug-21 15:33N 51°20' E 003°12'1 0.6
2015-Aug-21 14:32N 51°21' E 003°13'0 0.0
2015-Aug-21 13:23N 51°21' E 003°13'0 0.0
2015-Aug-21 12:32N 51°21' E 003°13'0 0.0
2015-Aug-21 11:32N 51°21' E 003°13'0 0.0
2015-Aug-21 10:32N 51°21' E 003°13'0 0.0
2015-Aug-21 09:32N 51°21' E 003°13'0 0.0
2015-Aug-21 08:32N 51°21' E 003°13'0 0.0
2015-Aug-21 07:32N 51°21' E 003°13'0 0.0
2015-Aug-21 06:32N 51°21' E 003°13'0 0.0
2015-Aug-21 05:32N 51°21' E 003°13'0 0.0
2015-Aug-21 04:32N 51°21' E 003°13'0 0.0
2015-Aug-21 03:32N 51°21' E 003°13'0 0.0
2015-Aug-21 02:32N 51°21' E 003°13'0 0.0
2015-Aug-21 01:32N 51°21' E 003°13'0 0.0
2015-Aug-21 00:32N 51°21' E 003°13'0 0.0
2015-Aug-20 23:32N 51°21' E 003°13'0 0.0
2015-Aug-20 22:32N 51°21' E 003°13'0 0.0
2015-Aug-20 21:32N 51°21' E 003°13'0 0.0
2015-Aug-20 20:32N 51°21' E 003°13'1 0.7
2015-Aug-20 19:34N 51°21' E 003°12'  
Track history (hours):
 
Tides and Currents Weather Stations Pressure Air Temp Water Temp Dewpoint Dewpoint Depression Visibility Wind Speed Wind Dir Waves Ship Positions

Celandine

Last reported at 2015-Aug-30 19:33 UTC. Time now 2015-Aug-30 20:02 UTC.
Position N 51°35' E 001°55'.

Length 162 m; draft 5.7 m.

Type: Ship (hazmat cat A). MMSI: 205476000.

Date/timePositionNaut miles runAvg speedWind from/ knotsBaromVisibWave heightAir tempDewpointWater temp
2015-Aug-30 19:33N 51°35' E 001°55'1414.5
2015-Aug-30 18:33N 51°29' E 001°34'1616.3
2015-Aug-30 17:33N 51°29' E 001°07'1716.9
2015-Aug-30 16:33N 51°30' E 000°40'1313.1
2015-Aug-30 15:34N 51°27' E 000°20'3 3.0
2015-Aug-30 14:34N 51°28' E 000°15'0 0.0
2015-Aug-30 13:34N 51°28' E 000°15'0 0.0
2015-Aug-30 12:34N 51°28' E 000°15'0 0.0
2015-Aug-30 11:34N 51°28' E 000°15'0 0.0
2015-Aug-30 10:34N 51°28' E 000°15'0 0.0
2015-Aug-30 09:34N 51°28' E 000°15'0 0.0
2015-Aug-30 08:34N 51°28' E 000°15'1 0.9
2015-Aug-30 07:34N 51°28' E 000°16'8 7.9
2015-Aug-30 06:34N 51°30' E 000°28'1414.3
2015-Aug-30 05:33N 51°29' E 000°51'1413.8
2015-Aug-30 04:34N 51°29' E 001°14'1212.2
2015-Aug-30 03:33N 51°30' E 001°33'1211.5
2015-Aug-30 02:33N 51°35' E 001°50'1312.9
2015-Aug-30 01:33N 51°41' E 002°08'1514.6
2015-Aug-30 00:33N 51°35' E 002°30'1414.1
2015-Aug-29 23:34N 51°30' E 002°51'1514.7
2015-Aug-29 22:33N 51°22' E 003°11'2 1.9
2015-Aug-29 21:33N 51°21' E 003°13'0 0.0
2015-Aug-29 20:33N 51°21' E 003°13'0 0.0
2015-Aug-29 19:30N 51°21' E 003°13'0 0.0
2015-Aug-29 18:24N 51°21' E 003°13'0 0.0
2015-Aug-29 17:30N 51°21' E 003°13'0 0.0
2015-Aug-29 16:33N 51°21' E 003°13'0 0.0
2015-Aug-29 15:34N 51°21' E 003°13'1110.7
2015-Aug-29 14:33N 51°22' E 002°56'1717.1
2015-Aug-29 13:33N 51°22' E 002°29'1616.0
2015-Aug-29 12:34N 51°23' E 002°03'1514.8
2015-Aug-29 11:33N 51°29' E 001°42'1515.2
2015-Aug-29 10:34N 51°29' E 001°17'1414.1
2015-Aug-29 09:34N 51°29' E 000°55'1414.0
2015-Aug-29 08:34N 51°30' E 000°32'9 8.6
2015-Aug-29 07:34N 51°28' E 000°19'3 2.5
2015-Aug-29 06:34N 51°28' E 000°15'0 0.0
2015-Aug-29 05:34N 51°28' E 000°15'0 0.0
2015-Aug-29 04:34N 51°28' E 000°15'0 0.0
2015-Aug-29 03:34N 51°28' E 000°15'0 0.0
2015-Aug-29 02:34N 51°28' E 000°15'0 0.0
2015-Aug-29 01:34N 51°28' E 000°15'0 0.0
2015-Aug-29 00:34N 51°28' E 000°15'0 0.0
2015-Aug-28 23:34N 51°28' E 000°15'0 0.0
2015-Aug-28 22:34N 51°28' E 000°15'0 0.0
2015-Aug-28 21:34N 51°28' E 000°15'0 0.0
2015-Aug-28 20:34N 51°28' E 000°15'0 0.0
2015-Aug-28 19:34N 51°28' E 000°15'0 0.0
2015-Aug-28 18:34N 51°28' E 000°15'0 0.0
2015-Aug-28 17:34N 51°28' E 000°15'1 0.9
2015-Aug-28 16:34N 51°28' E 000°16'0 0.0
2015-Aug-28 15:34N 51°28' E 000°16'0 0.0
2015-Aug-28 14:34N 51°28' E 000°16'0 0.0
2015-Aug-28 13:34N 51°28' E 000°16'0 0.0
2015-Aug-28 12:34N 51°28' E 000°16'0 0.0
2015-Aug-28 11:34N 51°28' E 000°16'0 0.0
2015-Aug-28 10:34N 51°28' E 000°16'0 0.0
2015-Aug-28 09:34N 51°28' E 000°16'0 0.0
2015-Aug-28 08:34N 51°28' E 000°16'0 0.0
2015-Aug-28 07:34N 51°28' E 000°16'0 0.0
2015-Aug-28 06:34N 51°28' E 000°16'0 0.0
2015-Aug-28 05:34N 51°28' E 000°16'0 0.0
2015-Aug-28 04:34N 51°28' E 000°16'0 0.0
2015-Aug-28 03:34N 51°28' E 000°16'0 0.0
2015-Aug-28 02:34N 51°28' E 000°16'0 0.0
2015-Aug-28 01:34N 51°28' E 000°16'0 0.0
2015-Aug-28 00:34N 51°28' E 000°16'0 0.0
2015-Aug-27 23:34N 51°28' E 000°16'0 0.0
2015-Aug-27 22:34N 51°28' E 000°16'0 0.0
2015-Aug-27 21:34N 51°28' E 000°16'0 0.0
2015-Aug-27 20:34N 51°28' E 000°16'0 0.0
2015-Aug-27 19:34N 51°28' E 000°16'0 0.0
2015-Aug-27 18:34N 51°28' E 000°16'0 0.0
2015-Aug-27 17:34N 51°28' E 000°16'0 0.0
2015-Aug-27 16:34N 51°28' E 000°16'0 0.0
2015-Aug-27 15:34N 51°28' E 000°16'0 0.0
2015-Aug-27 14:34N 51°28' E 000°16'0 0.0
2015-Aug-27 13:34N 51°28' E 000°16'1 1.4
2015-Aug-27 12:34N 51°28' E 000°18'8 7.8
2015-Aug-27 11:33N 51°30' E 000°30'1413.6
2015-Aug-27 10:34N 51°29' E 000°52'1515.1
2015-Aug-27 09:34N 51°29' E 001°16'1515.0
2015-Aug-27 08:34N 51°32' E 001°40'1414.0
2015-Aug-27 07:33N 51°38' E 002°01'2114.9
2015-Aug-27 06:09N 51°34' E 002°34'915.5
2015-Aug-27 05:33N 51°32' E 002°48'1616.1
2015-Aug-27 04:34N 51°23' E 003°10'3 3.0
2015-Aug-27 03:33N 51°21' E 003°13'0 0.0
2015-Aug-27 02:23N 51°21' E 003°13'0 0.0
2015-Aug-27 01:32N 51°21' E 003°13'0 0.0
2015-Aug-27 00:32N 51°21' E 003°13'0 0.0
2015-Aug-26 22:26N 51°21' E 003°13'0 0.0
2015-Aug-26 21:20N 51°21' E 003°13'0 0.0
2015-Aug-26 20:32N 51°21' E 003°13'0 0.0
2015-Aug-26 19:32N 51°21' E 003°13'9 9.3
2015-Aug-26 18:33N 51°23' E 002°59'1515.4
2015-Aug-26 17:33N 51°22' E 002°35'1515.1
2015-Aug-26 16:33N 51°19' E 002°11'1515.3
2015-Aug-26 15:33N 51°28' E 001°51'1615.9
2015-Aug-26 14:34N 51°29' E 001°26'1615.6
2015-Aug-26 13:33N 51°29' E 001°01'1717.4
2015-Aug-26 12:34N 51°30' E 000°33'1110.6
2015-Aug-26 11:34N 51°27' E 000°16'1 1.1
2015-Aug-26 10:34N 51°28' E 000°15'0 0.0
2015-Aug-26 09:33N 51°28' E 000°15'0 0.0
2015-Aug-26 08:33N 51°28' E 000°15'0 0.0
2015-Aug-26 07:33N 51°28' E 000°15'0 0.0
2015-Aug-26 06:33N 51°28' E 000°15'0 0.0
2015-Aug-26 05:33N 51°28' E 000°15'2 2.3
2015-Aug-26 04:33N 51°28' E 000°19'10 9.7
2015-Aug-26 03:33N 51°30' E 000°34'1514.8
2015-Aug-26 02:33N 51°29' E 000°58'1413.9
2015-Aug-26 01:33N 51°29' E 001°20'1514.8
2015-Aug-26 00:33N 51°31' E 001°44'1514.5
2015-Aug-25 23:33N 51°36' E 002°06'1413.8
2015-Aug-25 22:33N 51°35' E 002°28'1413.6
2015-Aug-25 21:32N 51°31' E 002°49'1514.8
2015-Aug-25 20:32N 51°23' E 003°10'3 3.2
2015-Aug-25 19:31N 51°21' E 003°13'0 0.0
2015-Aug-25 18:31N 51°21' E 003°13'0 0.0
2015-Aug-25 17:31N 51°21' E 003°13'0 0.0
2015-Aug-25 16:31N 51°21' E 003°13'0 0.0
2015-Aug-25 15:28N 51°21' E 003°13'0 0.0
2015-Aug-25 14:31N 51°21' E 003°13'0 0.0
2015-Aug-25 13:33N 51°21' E 003°13'1110.9
2015-Aug-25 12:34N 51°26' E 002°58'1615.4
2015-Aug-25 11:33N 51°35' E 002°37'1615.9
2015-Aug-25 10:33N 51°40' E 002°13'1716.8
2015-Aug-25 09:34N 51°33' E 001°49'1717.0
2015-Aug-25 08:33N 51°29' E 001°22'1616.1
2015-Aug-25 07:34N 51°29' E 000°57'1615.5
2015-Aug-25 06:34N 51°30' E 000°32'9 8.7
2015-Aug-25 05:34N 51°28' E 000°18'2 2.1
2015-Aug-25 04:34N 51°28' E 000°15'0 0.0
2015-Aug-25 03:34N 51°28' E 000°15'0 0.0
2015-Aug-25 02:34N 51°28' E 000°15'0 0.0
2015-Aug-25 01:34N 51°28' E 000°15'0 0.0
2015-Aug-25 00:34N 51°28' E 000°15'0 0.0
2015-Aug-24 23:34N 51°28' E 000°15'3 2.8
2015-Aug-24 22:33N 51°28' E 000°19'8 8.1
2015-Aug-24 21:33N 51°30' E 000°32'1413.6
2015-Aug-24 20:33N 51°29' E 000°54'1313.5
2015-Aug-24 19:34N 51°29' E 001°15'1515.1
2015-Aug-24 18:33N 51°31' E 001°39'1615.8
2015-Aug-24 17:34N 51°37' E 002°03'2015.9
2015-Aug-24 16:19N 51°35' E 002°35'1215.4
2015-Aug-24 15:33N 51°29' E 002°52'1515.3
2015-Aug-24 14:34N 51°21' E 003°12'1 0.8
2015-Aug-24 13:32N 51°21' E 003°13'0 0.0
2015-Aug-24 12:32N 51°21' E 003°13'0 0.0
2015-Aug-24 11:29N 51°21' E 003°13'0 0.0
2015-Aug-24 10:29N 51°21' E 003°13'0 0.0
2015-Aug-24 09:32N 51°21' E 003°13'0 0.0
2015-Aug-24 08:26N 51°21' E 003°13'0 0.0
2015-Aug-24 07:29N 51°21' E 003°13'0 0.0
2015-Aug-24 06:32N 51°21' E 003°13'0 0.0
2015-Aug-24 05:32N 51°21' E 003°13'0 0.0
2015-Aug-24 04:29N 51°21' E 003°13'0 0.0
2015-Aug-24 03:32N 51°21' E 003°13'0 0.0
2015-Aug-24 02:29N 51°21' E 003°13'0 0.0
2015-Aug-24 01:32N 51°21' E 003°13'0 0.0
2015-Aug-24 00:32N 51°21' E 003°13'0 0.0
2015-Aug-23 23:32N 51°21' E 003°13'0 0.0
2015-Aug-23 22:32N 51°21' E 003°13'0 0.0
2015-Aug-23 21:32N 51°21' E 003°13'0 0.0
2015-Aug-23 20:32N 51°21' E 003°13'0 0.0
2015-Aug-23 19:29N 51°21' E 003°13'0 0.0
2015-Aug-23 18:32N 51°21' E 003°13'0 0.0
2015-Aug-23 17:32N 51°21' E 003°13'0 0.0
2015-Aug-23 16:29N 51°21' E 003°13'0 0.0
2015-Aug-23 15:32N 51°21' E 003°13'0 0.0
2015-Aug-23 14:29N 51°21' E 003°13'0 0.0
2015-Aug-23 13:32N 51°21' E 003°13'0 0.0
2015-Aug-23 12:29N 51°21' E 003°13'0 0.0
2015-Aug-23 11:29N 51°21' E 003°13'0 0.0
2015-Aug-23 10:32N 51°21' E 003°13'0 0.0
2015-Aug-23 09:29N 51°21' E 003°13'0 0.0
2015-Aug-23 08:29N 51°21' E 003°13'0 0.0
2015-Aug-23 07:32N 51°21' E 003°13'0 0.0
2015-Aug-23 06:32N 51°21' E 003°13'0 0.0
2015-Aug-23 05:32N 51°21' E 003°13'0 0.0
2015-Aug-23 04:29N 51°21' E 003°13'0 0.0
2015-Aug-23 03:32N 51°21' E 003°13'0 0.0
2015-Aug-23 02:32N 51°21' E 003°13'0 0.0
2015-Aug-23 01:32N 51°21' E 003°13'0 0.0
2015-Aug-23 00:32N 51°21' E 003°13'0 0.0
2015-Aug-22 23:29N 51°21' E 003°13'0 0.0
2015-Aug-22 22:32N 51°21' E 003°13'0 0.0
2015-Aug-22 21:32N 51°21' E 003°13'0 0.0
2015-Aug-22 20:32N 51°21' E 003°13'0 0.0
2015-Aug-22 19:32N 51°21' E 003°13'0 0.0
2015-Aug-22 18:32N 51°21' E 003°13'0 0.0
2015-Aug-22 17:32N 51°21' E 003°13'0 0.0
2015-Aug-22 16:32N 51°21' E 003°13'0 0.0
2015-Aug-22 15:32N 51°21' E 003°13'0 0.0
2015-Aug-22 14:32N 51°21' E 003°13'0 0.0
2015-Aug-22 13:32N 51°21' E 003°13'0 0.0
2015-Aug-22 12:32N 51°21' E 003°13'0 0.0
2015-Aug-22 11:32N 51°21' E 003°13'0 0.0
2015-Aug-22 10:32N 51°21' E 003°13'0 0.0
2015-Aug-22 09:32N 51°21' E 003°13'0 0.0
2015-Aug-22 08:20N 51°21' E 003°13'0 0.0
2015-Aug-22 07:32N 51°21' E 003°13'0 0.0
2015-Aug-22 06:32N 51°21' E 003°13'0 0.0
2015-Aug-22 05:32N 51°21' E 003°13'0 0.0
2015-Aug-22 04:32N 51°21' E 003°13'0 0.0
2015-Aug-22 03:32N 51°21' E 003°13'0 0.0
2015-Aug-22 02:32N 51°21' E 003°13'0 0.0
2015-Aug-22 01:32N 51°21' E 003°13'0 0.0
2015-Aug-22 00:32N 51°21' E 003°13'0 0.0
2015-Aug-21 23:32N 51°21' E 003°13'0 0.0
2015-Aug-21 22:29N 51°21' E 003°13'0 0.0
2015-Aug-21 21:32N 51°21' E 003°13'0 0.4
2015-Aug-21 20:33N 51°20' E 003°12'0 0.0
2015-Aug-21 19:33N 51°20' E 003°12'0 0.0
2015-Aug-21 18:33N 51°20' E 003°12'0 0.0
2015-Aug-21 17:19N 51°20' E 003°12'0 0.0
2015-Aug-21 15:33N 51°20' E 003°12'1 0.6
2015-Aug-21 14:32N 51°21' E 003°13'0 0.0
2015-Aug-21 13:23N 51°21' E 003°13'0 0.0
2015-Aug-21 12:32N 51°21' E 003°13'0 0.0
2015-Aug-21 11:32N 51°21' E 003°13'0 0.0
2015-Aug-21 10:32N 51°21' E 003°13'0 0.0
2015-Aug-21 09:32N 51°21' E 003°13'0 0.0
2015-Aug-21 08:32N 51°21' E 003°13'0 0.0
2015-Aug-21 07:32N 51°21' E 003°13'0 0.0
2015-Aug-21 06:32N 51°21' E 003°13'0 0.0
2015-Aug-21 05:32N 51°21' E 003°13'0 0.0
2015-Aug-21 04:32N 51°21' E 003°13'0 0.0
2015-Aug-21 03:32N 51°21' E 003°13'0 0.0
2015-Aug-21 02:32N 51°21' E 003°13'0 0.0
2015-Aug-21 01:32N 51°21' E 003°13'0 0.0
2015-Aug-21 00:32N 51°21' E 003°13'0 0.0
2015-Aug-20 23:32N 51°21' E 003°13'0 0.0
2015-Aug-20 22:32N 51°21' E 003°13'0 0.0
2015-Aug-20 21:32N 51°21' E 003°13'0 0.0
2015-Aug-20 20:32N 51°21' E 003°13'1 0.7
2015-Aug-20 19:34N 51°21' E 003°12'  

Dump ship's entire track history